createdAt,value
2023-04-15T00:02:00.134Z,4.82
2023-04-15T00:04:29.082Z,4.10
2023-04-15T00:06:57.292Z,4.03
2023-04-15T00:09:25.365Z,4.32
2023-04-15T00:11:53.771Z,4.03
2023-04-15T00:14:22.162Z,3.78
2023-04-15T00:16:56.297Z,3.28
2023-04-15T00:19:24.738Z,3.15
2023-04-15T00:21:52.820Z,3.67
2023-04-15T00:24:20.918Z,3.30
2023-04-15T00:26:49.232Z,3.83
2023-04-15T00:29:17.280Z,3.83
2023-04-15T00:31:45.859Z,3.00
2023-04-15T00:34:15.316Z,3.70
2023-04-15T00:36:43.480Z,3.80
2023-04-15T00:39:11.537Z,4.00
2023-04-15T00:41:40.415Z,3.72
2023-04-15T00:44:08.579Z,3.33
2023-04-15T00:46:38.472Z,3.10
2023-04-15T00:49:07.792Z,3.03
2023-04-15T00:51:37.646Z,3.10
2023-04-15T00:54:06.899Z,3.05
2023-04-15T00:56:38.105Z,3.58
2023-04-15T00:59:07.206Z,3.05
2023-04-15T01:01:36.551Z,3.28
2023-04-15T01:04:05.517Z,2.90
2023-04-15T01:06:33.958Z,3.30
2023-04-15T01:09:03.841Z,3.38
2023-04-15T01:11:34.440Z,3.28
2023-04-15T01:14:02.919Z,3.25
2023-04-15T01:16:31.208Z,3.58
2023-04-15T01:18:59.608Z,3.40
2023-04-15T01:21:28.206Z,3.67
2023-04-15T01:23:58.553Z,3.65
2023-04-15T01:26:28.349Z,3.75
2023-04-15T01:28:56.528Z,3.75
2023-04-15T01:31:24.647Z,4.10
2023-04-15T01:33:52.940Z,3.92
2023-04-15T01:36:21.078Z,4.32
2023-04-15T01:38:49.477Z,3.83
2023-04-15T01:41:17.584Z,3.70
2023-04-15T01:43:50.421Z,3.72
2023-04-15T01:46:18.673Z,3.70
2023-04-15T01:48:46.793Z,3.97
2023-04-15T01:51:15.107Z,4.38
2023-04-15T01:53:43.876Z,3.80
2023-04-15T01:56:12.021Z,3.85
2023-04-15T01:58:40.517Z,4.03
2023-04-15T02:01:10.635Z,3.55
2023-04-15T02:03:39.777Z,3.40
2023-04-15T02:06:08.015Z,3.70
2023-04-15T02:08:36.065Z,3.83
2023-04-15T02:11:04.232Z,4.45
2023-04-15T02:13:32.260Z,3.53
2023-04-15T02:16:00.653Z,3.60
2023-04-15T02:18:30.146Z,3.85
2023-04-15T02:20:58.913Z,3.92
2023-04-15T02:23:27.171Z,3.88
2023-04-15T02:25:55.193Z,4.00
2023-04-15T02:28:23.350Z,3.78
2023-04-15T02:30:53.095Z,4.00
2023-04-15T02:33:22.578Z,4.05
2023-04-15T02:35:53.385Z,4.80
2023-04-15T02:38:21.430Z,4.13
2023-04-15T02:40:51.127Z,4.22
2023-04-15T02:43:19.197Z,3.97
2023-04-15T02:45:48.457Z,4.00
2023-04-15T02:48:19.123Z,3.65
2023-04-15T02:50:48.140Z,3.45
2023-04-15T02:53:17.752Z,3.17
2023-04-15T02:55:46.293Z,3.78
2023-04-15T02:58:14.637Z,3.60
2023-04-15T03:00:42.655Z,3.60
2023-04-15T03:03:11.008Z,3.28
2023-04-15T03:05:40.176Z,3.78
2023-04-15T03:08:08.475Z,3.72
2023-04-15T03:10:37.969Z,4.22
2023-04-15T03:13:06.041Z,3.83
2023-04-15T03:15:34.647Z,4.05
2023-04-15T03:18:02.790Z,4.03
2023-04-15T03:20:31.004Z,4.20
2023-04-15T03:22:59.136Z,3.78
2023-04-15T03:25:27.221Z,3.85
2023-04-15T03:27:57.035Z,3.67
2023-04-15T03:30:25.210Z,3.42
2023-04-15T03:32:53.490Z,3.92
2023-04-15T03:35:21.549Z,3.33
2023-04-15T03:37:49.637Z,3.70
2023-04-15T03:40:17.706Z,3.58
2023-04-15T03:42:45.708Z,3.65
2023-04-15T03:45:15.230Z,3.53
2023-04-15T03:47:43.377Z,3.45
2023-04-15T03:50:11.886Z,3.95
2023-04-15T03:52:40.087Z,3.78
2023-04-15T03:55:08.610Z,4.38
2023-04-15T03:57:39.186Z,3.78
2023-04-15T04:00:10.220Z,3.70
2023-04-15T04:02:39.934Z,4.18
2023-04-15T04:05:08.726Z,4.28
2023-04-15T04:07:37.132Z,4.00
2023-04-15T04:10:05.768Z,4.00
2023-04-15T04:12:34.323Z,3.95
2023-04-15T04:15:03.317Z,4.63
2023-04-15T04:17:31.598Z,3.90
2023-04-15T04:20:01.123Z,3.90
2023-04-15T04:22:29.293Z,3.58
2023-04-15T04:24:59.586Z,4.05
2023-04-15T04:27:27.872Z,3.58
2023-04-15T04:29:56.227Z,3.65
2023-04-15T04:32:24.468Z,3.47
2023-04-15T04:34:52.766Z,3.78
2023-04-15T04:37:23.486Z,3.58
2023-04-15T04:39:51.678Z,3.45
2023-04-15T04:42:19.762Z,3.83
2023-04-15T04:44:47.913Z,3.45
2023-04-15T04:47:16.160Z,3.10
2023-04-15T04:49:44.268Z,3.25
2023-04-15T04:52:12.448Z,3.10
2023-04-15T04:54:41.950Z,3.17
2023-04-15T04:57:12.707Z,3.33
2023-04-15T04:59:41.018Z,3.03
2023-04-15T05:02:09.161Z,3.10
2023-04-15T05:04:38.428Z,2.95
2023-04-15T05:07:06.522Z,3.03
2023-04-15T05:09:36.236Z,3.05
2023-04-15T05:12:06.013Z,2.60
2023-04-15T05:14:34.129Z,2.80
2023-04-15T05:17:02.211Z,3.30
2023-04-15T05:19:30.584Z,3.13
2023-04-15T05:22:00.019Z,3.35
2023-04-15T05:24:28.404Z,3.85
2023-04-15T05:26:56.934Z,3.53
2023-04-15T05:29:26.417Z,3.33
2023-04-15T05:31:54.482Z,3.35
2023-04-15T05:34:22.632Z,3.33
2023-04-15T05:36:50.695Z,3.50
2023-04-15T05:39:18.813Z,3.60
2023-04-15T05:41:46.955Z,3.60
2023-04-15T05:44:15.041Z,3.80
2023-04-15T05:46:44.629Z,3.58
2023-04-15T05:49:12.703Z,3.40
2023-04-15T05:51:41.121Z,3.72
2023-04-15T05:54:09.370Z,3.80
2023-04-15T05:56:37.554Z,3.47
2023-04-15T05:59:05.717Z,4.10
2023-04-15T06:01:35.042Z,3.92
2023-04-15T06:04:04.662Z,3.63
2023-04-15T06:06:32.849Z,3.65
2023-04-15T06:09:01.231Z,3.20
2023-04-15T06:11:29.504Z,3.60
2023-04-15T06:13:57.799Z,3.58
2023-04-15T06:16:26.338Z,3.40
2023-04-15T06:18:54.528Z,2.97
2023-04-15T06:21:24.134Z,3.65
2023-04-15T06:23:52.149Z,4.80
2023-04-15T06:26:20.250Z,3.50
2023-04-15T06:28:48.515Z,3.20
2023-04-15T06:31:16.749Z,2.35
2023-04-15T06:33:44.902Z,2.40
2023-04-15T06:36:12.936Z,2.45
2023-04-15T06:38:44.885Z,2.42
2023-04-15T06:41:13.051Z,2.40
2023-04-15T06:43:41.270Z,2.38
2023-04-15T06:46:09.447Z,2.47
2023-04-15T06:48:37.610Z,2.35
2023-04-15T06:51:06.263Z,2.08
2023-04-15T06:53:35.694Z,2.15
2023-04-15T06:56:05.182Z,2.10
2023-04-15T06:58:33.313Z,2.70
2023-04-15T07:01:01.466Z,1.88
2023-04-15T07:03:32.669Z,2.25
2023-04-15T07:06:01.850Z,2.58
2023-04-15T07:08:29.974Z,2.33
2023-04-15T07:10:58.176Z,2.20
2023-04-15T07:13:27.661Z,2.22
2023-04-15T07:15:56.107Z,2.35
2023-04-15T07:18:24.185Z,1.80
2023-04-15T07:20:53.799Z,1.77
2023-04-15T07:23:21.857Z,2.10
2023-04-15T07:25:50.746Z,1.70
2023-04-15T07:28:18.879Z,1.60
2023-04-15T07:30:48.484Z,1.60
2023-04-15T07:33:16.634Z,1.42
2023-04-15T07:35:45.262Z,1.80
2023-04-15T07:38:13.821Z,2.03
2023-04-15T07:40:42.600Z,1.67
2023-04-15T07:43:11.008Z,1.30
2023-04-15T07:45:39.157Z,1.65
2023-04-15T07:48:09.599Z,1.52
2023-04-15T07:50:39.544Z,1.52
2023-04-15T07:53:09.546Z,1.30
2023-04-15T07:55:38.041Z,1.48
2023-04-15T07:58:08.430Z,1.38
2023-04-15T08:00:37.750Z,1.20
2023-04-15T08:03:07.009Z,1.30
2023-04-15T08:05:36.805Z,1.20
2023-04-15T08:08:05.532Z,1.38
2023-04-15T08:10:33.740Z,1.50
2023-04-15T08:13:01.876Z,0.90
2023-04-15T08:15:30.038Z,1.10
2023-04-15T08:17:59.368Z,1.15
2023-04-15T08:20:27.811Z,1.20
2023-04-15T08:22:57.362Z,1.20
2023-04-15T08:25:25.901Z,1.30
2023-04-15T08:27:59.988Z,1.25
2023-04-15T08:30:28.413Z,1.48
2023-04-15T08:32:57.667Z,1.67
2023-04-15T08:35:26.075Z,1.70
2023-04-15T08:37:54.205Z,1.42
2023-04-15T08:40:34.243Z,1.98
2023-04-15T08:43:04.987Z,2.20
2023-04-15T08:45:40.188Z,2.45
2023-04-15T08:48:11.529Z,2.67
2023-04-15T08:50:39.898Z,2.20
2023-04-15T08:53:08.364Z,2.63
2023-04-15T08:55:41.227Z,1.55
2023-04-15T08:58:09.857Z,1.45
2023-04-15T09:00:38.407Z,1.60
2023-04-15T09:03:06.914Z,1.88
2023-04-15T09:05:35.666Z,1.88
2023-04-15T09:08:06.834Z,2.10
2023-04-15T09:10:39.328Z,2.15
2023-04-15T09:13:07.907Z,2.53
2023-04-15T09:15:39.993Z,2.20
2023-04-15T09:18:08.303Z,2.30
2023-04-15T09:20:41.722Z,2.22
2023-04-15T09:23:17.749Z,2.08
2023-04-15T09:25:50.727Z,2.42
2023-04-15T09:28:26.554Z,2.13
2023-04-15T09:30:58.076Z,1.70
2023-04-15T09:33:27.550Z,2.10
2023-04-15T09:36:00.204Z,2.10
2023-04-15T09:40:58.704Z,2.30
2023-04-15T09:43:39.431Z,2.13
2023-04-15T09:46:07.707Z,1.88
2023-04-15T09:48:36.044Z,2.20
2023-04-15T09:51:04.245Z,1.35
2023-04-15T09:53:35.558Z,1.10
2023-04-15T09:56:07.989Z,0.90
2023-04-15T09:58:38.869Z,1.52
2023-04-15T10:01:09.377Z,1.00
2023-04-15T10:03:37.818Z,1.00
2023-04-15T10:06:06.617Z,0.75
2023-04-15T10:08:35.950Z,0.80
2023-04-15T10:11:06.913Z,0.90
2023-04-15T10:13:37.551Z,1.00
2023-04-15T10:16:08.402Z,0.93
2023-04-15T10:18:39.351Z,0.80
2023-04-15T10:21:10.041Z,0.70
2023-04-15T10:23:39.454Z,0.82
2023-04-15T10:26:09.634Z,0.70
2023-04-15T10:28:37.717Z,0.90
2023-04-15T10:31:07.431Z,0.80
2023-04-15T10:33:36.413Z,0.60
2023-04-15T10:36:04.888Z,0.68
2023-04-15T10:38:37.837Z,0.73
2023-04-15T10:41:21.202Z,0.80
2023-04-15T10:43:53.895Z,1.42
2023-04-15T10:46:26.765Z,1.27
2023-04-15T10:48:55.656Z,1.10
2023-04-15T10:51:32.302Z,1.00
2023-04-15T10:54:01.896Z,1.15
2023-04-15T10:56:32.321Z,1.00
2023-04-15T10:59:02.649Z,1.00
2023-04-15T11:01:55.241Z,0.70
2023-04-15T11:04:55.211Z,0.95
2023-04-15T11:07:37.489Z,0.70
2023-04-15T11:10:26.479Z,0.70
2023-04-15T11:12:58.971Z,0.70
2023-04-15T11:15:30.902Z,0.75
2023-04-15T11:18:02.490Z,0.60
2023-04-15T11:20:31.518Z,0.80
2023-04-15T11:23:14.825Z,0.63
2023-04-15T11:25:47.159Z,0.60
2023-04-15T11:28:17.552Z,0.70
2023-04-15T11:30:45.842Z,1.15
2023-04-15T11:33:14.303Z,0.80
2023-04-15T11:35:42.843Z,0.80
2023-04-15T11:38:12.759Z,0.80
2023-04-15T11:40:42.464Z,0.60
2023-04-15T11:43:13.913Z,0.60
2023-04-15T11:45:53.409Z,0.60
2023-04-15T11:48:24.843Z,0.60
2023-04-15T11:50:57.115Z,0.63
2023-04-15T11:53:27.103Z,0.70
2023-04-15T11:55:55.712Z,0.85
2023-04-15T11:58:28.001Z,0.70
2023-04-15T12:01:00.398Z,0.70
2023-04-15T12:03:30.600Z,0.80
2023-04-15T12:06:06.702Z,0.80
2023-04-15T12:09:05.327Z,0.80
2023-04-15T12:11:36.702Z,0.50
2023-04-15T12:14:07.582Z,0.70
2023-04-15T12:16:47.967Z,0.68
2023-04-15T12:19:18.315Z,0.70
2023-04-15T12:21:48.971Z,0.70
2023-04-15T12:24:17.397Z,0.70
2023-04-15T12:26:47.395Z,0.80
2023-04-15T12:29:19.008Z,0.88
2023-04-15T12:31:52.900Z,0.70
2023-04-15T12:34:29.591Z,0.75
2023-04-15T12:36:59.106Z,0.60
2023-04-15T12:39:30.443Z,0.60
2023-04-15T12:41:59.478Z,0.70
2023-04-15T12:44:28.092Z,0.90
2023-04-15T12:46:58.302Z,0.90
2023-04-15T12:49:26.918Z,0.60
2023-04-15T12:51:57.870Z,0.82
2023-04-15T12:54:26.959Z,1.00
2023-04-15T12:56:55.640Z,0.77
2023-04-15T12:59:24.517Z,1.02
2023-04-15T13:01:53.996Z,0.80
2023-04-15T13:04:24.432Z,0.88
2023-04-15T13:06:52.836Z,0.80
2023-04-15T13:09:21.589Z,0.70
2023-04-15T13:11:51.342Z,0.77
2023-04-15T13:14:19.546Z,0.70
2023-04-15T13:16:47.642Z,0.80
2023-04-15T13:19:16.111Z,0.80
2023-04-15T13:21:45.591Z,0.85
2023-04-15T13:24:13.654Z,1.10
2023-04-15T13:26:44.790Z,0.80
2023-04-15T13:29:15.296Z,0.70
2023-04-15T13:31:43.549Z,0.85
2023-04-15T13:34:11.749Z,0.80
2023-04-15T13:36:41.851Z,0.90
2023-04-15T13:39:11.568Z,0.80
2023-04-15T13:41:39.919Z,1.02
2023-04-15T13:44:08.077Z,0.90
2023-04-15T13:46:36.402Z,0.93
2023-04-15T13:49:04.649Z,1.00
2023-04-15T13:51:33.741Z,1.00
2023-04-15T13:54:02.625Z,1.08
2023-04-15T13:56:36.337Z,1.00
2023-04-15T13:59:04.900Z,1.20
2023-04-15T14:01:33.262Z,1.10
2023-04-15T14:04:03.442Z,1.27
2023-04-15T14:06:32.473Z,1.17
2023-04-15T14:09:00.835Z,1.13
2023-04-15T14:11:30.421Z,1.00
2023-04-15T14:14:00.162Z,0.75
2023-04-15T14:16:28.367Z,0.95
2023-04-15T14:18:56.512Z,0.80
2023-04-15T14:21:24.830Z,0.70
2023-04-15T14:23:53.143Z,0.95
2023-04-15T14:26:21.661Z,1.08
2023-04-15T14:28:49.911Z,0.80
2023-04-15T14:31:20.723Z,0.70
2023-04-15T14:33:49.049Z,0.70
2023-04-15T14:36:17.341Z,0.90
2023-04-15T14:38:48.764Z,1.00
2023-04-15T14:41:18.918Z,0.60
2023-04-15T14:43:47.409Z,0.80
2023-04-15T14:46:16.061Z,1.40
2023-04-15T14:48:45.886Z,1.85
2023-04-15T14:51:14.160Z,1.85
2023-04-15T14:53:42.608Z,1.83
2023-04-15T14:56:10.882Z,2.20
2023-04-15T14:58:39.149Z,1.90
2023-04-15T15:01:07.724Z,1.48
2023-04-15T15:03:36.603Z,1.63
2023-04-15T15:06:06.474Z,1.50
2023-04-15T15:08:34.924Z,1.80
2023-04-15T15:11:03.366Z,1.20
2023-04-15T15:13:31.580Z,1.30
2023-04-15T15:15:59.753Z,1.30
2023-04-15T15:18:27.879Z,1.25
2023-04-15T15:20:56.034Z,1.10
2023-04-15T15:23:26.046Z,1.20
2023-04-15T15:25:54.104Z,1.17
2023-04-15T15:28:22.692Z,0.90
2023-04-15T15:30:50.736Z,1.25
2023-04-15T15:33:19.215Z,0.90
2023-04-15T15:35:47.698Z,1.10
2023-04-15T15:38:16.302Z,1.00
2023-04-15T15:40:45.809Z,0.82
2023-04-15T15:43:13.811Z,1.08
2023-04-15T15:45:42.052Z,1.02
2023-04-15T15:48:10.775Z,1.15
2023-04-15T15:50:39.220Z,1.13
2023-04-15T15:53:07.363Z,1.10
2023-04-15T15:55:35.477Z,1.35
2023-04-15T15:58:04.939Z,1.50
2023-04-15T16:00:33.216Z,1.52
2023-04-15T16:05:32.374Z,1.70
2023-04-15T16:08:00.504Z,2.03
2023-04-15T16:10:28.953Z,1.90
2023-04-15T16:12:57.101Z,1.73
2023-04-15T16:15:27.568Z,2.10
2023-04-15T16:17:55.787Z,1.90
2023-04-15T16:20:24.302Z,2.63
2023-04-15T16:22:52.391Z,2.20
2023-04-15T16:25:20.842Z,2.30
2023-04-15T16:28:00.856Z,2.53
2023-04-15T16:30:36.635Z,2.58
2023-04-15T16:33:05.371Z,2.53
2023-04-15T16:35:34.634Z,2.42
2023-04-15T16:38:03.514Z,2.42
2023-04-15T16:40:32.706Z,2.78
2023-04-15T16:43:01.204Z,2.38
2023-04-15T16:45:29.758Z,2.30
2023-04-15T16:47:59.793Z,2.00
2023-04-15T16:50:28.366Z,2.17
2023-04-15T16:52:57.220Z,1.98
2023-04-15T16:55:27.305Z,2.03
2023-04-15T16:58:02.562Z,2.22
2023-04-15T17:00:33.385Z,2.50
2023-04-15T17:03:03.939Z,2.20
2023-04-15T17:05:32.422Z,2.08
2023-04-15T17:08:00.812Z,2.05
2023-04-15T17:10:29.239Z,2.00
2023-04-15T17:12:57.705Z,2.13
2023-04-15T17:15:26.254Z,1.92
2023-04-15T17:17:55.293Z,2.10
2023-04-15T17:20:24.912Z,1.90
2023-04-15T17:22:54.212Z,2.10
2023-04-15T17:25:23.440Z,2.00
2023-04-15T17:27:51.502Z,2.13
2023-04-15T17:30:20.879Z,2.00
2023-04-15T17:32:49.722Z,1.67
2023-04-15T17:35:18.377Z,2.40
2023-04-15T17:37:50.211Z,2.22
2023-04-15T17:40:18.814Z,1.93
2023-04-15T17:42:47.616Z,2.38
2023-04-15T17:45:16.295Z,2.65
2023-04-15T17:47:45.355Z,3.08
2023-04-15T17:50:14.251Z,2.72
2023-04-15T17:52:43.203Z,2.60
2023-04-15T17:58:02.653Z,2.38
2023-04-15T18:00:32.065Z,2.67
2023-04-15T18:03:00.701Z,2.63
2023-04-15T18:05:30.199Z,2.53
2023-04-15T18:08:00.598Z,2.90
2023-04-15T18:10:30.704Z,2.80
2023-04-15T18:13:01.057Z,2.72
2023-04-15T18:15:30.547Z,3.45
2023-04-15T18:17:59.993Z,3.22
2023-04-15T18:20:29.579Z,2.95
2023-04-15T18:22:58.103Z,3.17
2023-04-15T18:25:27.218Z,3.13
2023-04-15T18:27:58.345Z,2.38
2023-04-15T18:30:27.370Z,2.90
2023-04-15T18:32:56.208Z,2.45
2023-04-15T18:35:25.618Z,2.75
2023-04-15T18:37:55.237Z,2.63
2023-04-15T18:40:25.681Z,2.38
2023-04-15T18:42:55.020Z,2.33
2023-04-15T18:45:26.787Z,2.70
2023-04-15T18:47:57.036Z,2.85
2023-04-15T18:50:26.625Z,2.53
2023-04-15T18:52:55.174Z,2.80
2023-04-15T18:55:24.929Z,2.50
2023-04-15T18:57:54.496Z,2.70
2023-04-15T19:00:28.200Z,2.23
2023-04-15T19:02:57.677Z,2.35
2023-04-15T19:05:27.710Z,2.33
2023-04-15T19:07:59.699Z,2.50
2023-04-15T19:10:28.931Z,2.60
2023-04-15T19:12:58.093Z,2.15
2023-04-15T19:15:29.422Z,2.47
2023-04-15T19:17:58.477Z,2.45
2023-04-15T19:20:27.612Z,3.03
2023-04-15T19:22:57.212Z,2.83
2023-04-15T19:25:26.201Z,2.75
2023-04-15T19:27:55.782Z,3.10
2023-04-15T19:30:26.558Z,3.03
2023-04-15T19:32:57.120Z,2.58
2023-04-15T19:35:28.339Z,2.78
2023-04-15T19:37:56.922Z,3.15
2023-04-15T19:40:26.223Z,2.78
2023-04-15T19:42:55.832Z,3.30
2023-04-15T19:45:25.580Z,2.95
2023-04-15T19:48:01.094Z,3.03
2023-04-15T19:50:29.453Z,2.97
2023-04-15T19:52:58.330Z,2.55
2023-04-15T19:55:30.664Z,3.13
2023-04-15T19:58:00.316Z,2.97
2023-04-15T20:00:30.120Z,3.15
2023-04-15T20:03:01.058Z,3.10
2023-04-15T20:05:31.596Z,3.40
2023-04-15T20:08:00.729Z,3.00
2023-04-15T20:10:31.028Z,4.68
2023-04-15T20:12:59.573Z,4.68
2023-04-15T20:15:29.238Z,3.92
2023-04-15T20:17:58.509Z,3.42
2023-04-15T20:20:30.193Z,3.95
2023-04-15T20:22:58.542Z,3.67
2023-04-15T20:25:27.308Z,4.88
2023-04-15T20:27:58.133Z,4.10
2023-04-15T20:30:29.521Z,4.25
2023-04-15T20:32:57.836Z,4.22
2023-04-15T20:35:31.401Z,4.00
2023-04-15T20:38:01.424Z,3.65
2023-04-15T20:40:30.075Z,3.70
2023-04-15T20:42:58.593Z,3.78
2023-04-15T20:45:27.507Z,3.97
2023-04-15T20:47:57.477Z,3.28
2023-04-15T20:50:25.574Z,3.40
2023-04-15T20:52:55.386Z,3.72
2023-04-15T20:55:23.831Z,2.80
2023-04-15T20:57:54.148Z,2.70
2023-04-15T21:00:22.391Z,2.45
2023-04-15T21:02:51.386Z,3.85
2023-04-15T21:05:20.216Z,3.05
2023-04-15T21:07:49.129Z,2.83
2023-04-15T21:10:19.040Z,2.47
2023-04-15T21:12:47.568Z,2.60
2023-04-15T21:15:15.769Z,2.60
2023-04-15T21:17:43.893Z,3.45
2023-04-15T21:20:13.458Z,2.90
2023-04-15T21:22:41.707Z,3.55
2023-04-15T21:25:10.808Z,4.45
2023-04-15T21:27:40.285Z,7.43
2023-04-15T21:30:09.347Z,7.43
2023-04-15T21:32:37.583Z,7.20
2023-04-15T21:35:06.652Z,6.18
2023-04-15T21:37:34.804Z,6.70
2023-04-15T21:40:02.909Z,6.15
2023-04-15T21:42:31.239Z,6.32
2023-04-15T21:45:00.713Z,5.57
2023-04-15T21:47:28.861Z,4.10
2023-04-15T21:49:57.095Z,3.30
2023-04-15T21:52:25.219Z,2.75
2023-04-15T21:54:53.257Z,3.60
2023-04-15T21:57:21.359Z,3.08
2023-04-15T21:59:49.477Z,2.78
2023-04-15T22:02:19.098Z,2.60
2023-04-15T22:04:47.240Z,3.30
2023-04-15T22:07:15.701Z,3.58
2023-04-15T22:09:43.758Z,2.55
2023-04-15T22:12:11.837Z,3.15
2023-04-15T22:14:39.847Z,3.17
2023-04-15T22:17:07.923Z,4.53
2023-04-15T22:19:37.414Z,4.15
2023-04-15T22:22:05.509Z,3.53
2023-04-15T22:24:40.330Z,3.47
2023-04-15T22:27:08.694Z,3.20
2023-04-15T22:29:36.733Z,3.72
2023-04-15T22:32:04.825Z,3.53
2023-04-15T22:34:32.834Z,2.92
2023-04-15T22:37:06.796Z,2.45
2023-04-15T22:39:35.345Z,2.13
2023-04-15T22:42:03.488Z,2.30
2023-04-15T22:44:31.566Z,1.80
2023-04-15T22:46:59.678Z,1.50
2023-04-15T22:49:27.782Z,1.67
2023-04-15T22:51:56.050Z,1.70
2023-04-15T22:54:25.760Z,2.05
2023-04-15T22:56:53.850Z,1.88
2023-04-15T22:59:21.939Z,1.70
2023-04-15T23:01:50.286Z,1.60
2023-04-15T23:04:26.137Z,2.08
2023-04-15T23:06:55.083Z,1.75
2023-04-15T23:09:23.338Z,2.00
2023-04-15T23:11:52.836Z,1.95
2023-04-15T23:14:21.018Z,2.30
2023-04-15T23:16:49.045Z,3.15
2023-04-15T23:19:17.216Z,3.83
2023-04-15T23:21:45.712Z,3.58
2023-04-15T23:24:14.017Z,4.22
2023-04-15T23:26:42.097Z,4.78
2023-04-15T23:29:11.938Z,5.20
2023-04-15T23:31:41.723Z,6.90
2023-04-15T23:34:10.010Z,4.97
2023-04-15T23:36:38.251Z,6.13
2023-04-15T23:39:06.471Z,5.85
2023-04-15T23:41:34.641Z,5.13
2023-04-15T23:44:02.800Z,5.65
2023-04-15T23:46:32.479Z,5.90
2023-04-15T23:49:00.636Z,5.97
2023-04-15T23:51:28.738Z,5.95
2023-04-15T23:53:56.881Z,5.18
2023-04-15T23:56:25.017Z,5.40
2023-04-15T23:58:53.068Z,5.82
